createdAt,value
2019-04-01T00:00:53.108Z,11.40
2019-04-01T00:03:22.552Z,12.87
2019-04-01T00:05:51.974Z,12.43
2019-04-01T00:08:21.463Z,11.47
2019-04-01T00:10:50.840Z,11.97
2019-04-01T00:13:20.296Z,11.60
2019-04-01T00:15:49.670Z,12.23
2019-04-01T00:18:19.053Z,11.97
2019-04-01T00:20:48.413Z,11.83
2019-04-01T00:23:17.799Z,11.60
2019-04-01T00:25:47.204Z,12.17
2019-04-01T00:28:16.592Z,11.83
2019-04-01T00:30:46.019Z,11.07
2019-04-01T00:33:15.401Z,11.67
2019-04-01T00:35:44.785Z,12.43
2019-04-01T00:38:14.151Z,12.10
2019-04-01T00:40:45.173Z,12.50
2019-04-01T00:43:19.116Z,12.03
2019-04-01T00:45:50.167Z,12.07
2019-04-01T00:48:19.553Z,11.73
2019-04-01T00:50:49.001Z,10.87
2019-04-01T00:53:18.435Z,11.07
2019-04-01T00:55:47.865Z,12.03
2019-04-01T00:58:17.353Z,12.10
2019-04-01T01:00:47.803Z,12.10
2019-04-01T01:03:17.247Z,12.37
2019-04-01T01:05:46.633Z,11.63
2019-04-01T01:08:16.422Z,12.20
2019-04-01T01:10:45.945Z,11.37
2019-04-01T01:13:15.459Z,11.50
2019-04-01T01:15:44.834Z,12.37
2019-04-01T01:18:14.601Z,12.10
2019-04-01T01:20:44.028Z,12.20
2019-04-01T01:23:13.413Z,11.57
2019-04-01T01:25:42.831Z,10.83
2019-04-01T01:28:12.254Z,11.27
2019-04-01T01:30:41.609Z,12.43
2019-04-01T01:33:10.981Z,11.83
2019-04-01T01:35:40.345Z,11.80
2019-04-01T01:38:09.744Z,12.53
2019-04-01T01:40:39.104Z,12.00
2019-04-01T01:43:08.488Z,11.90
2019-04-01T01:45:37.855Z,11.83
2019-04-01T01:48:07.224Z,12.60
2019-04-01T01:50:36.612Z,13.57
2019-04-01T01:53:06.029Z,12.13
2019-04-01T01:55:35.533Z,12.00
2019-04-01T01:58:04.906Z,13.10
2019-04-01T02:00:35.337Z,11.80
2019-04-01T02:03:04.616Z,12.10
2019-04-01T02:05:34.072Z,12.27
2019-04-01T02:08:03.474Z,12.13
2019-04-01T02:10:33.019Z,11.70
2019-04-01T02:13:04.822Z,12.23
2019-04-01T02:15:34.275Z,12.10
2019-04-01T02:18:03.739Z,13.20
2019-04-01T02:20:33.114Z,12.10
2019-04-01T02:23:02.479Z,12.57
2019-04-01T02:25:31.876Z,12.03
2019-04-01T02:28:01.233Z,12.07
2019-04-01T02:30:30.642Z,12.03
2019-04-01T02:32:59.995Z,12.23
2019-04-01T02:35:29.542Z,12.13
2019-04-01T02:37:58.935Z,11.13
2019-04-01T02:40:28.335Z,12.40
2019-04-01T02:42:57.963Z,12.87
2019-04-01T02:45:27.393Z,12.73
2019-04-01T02:47:56.786Z,13.23
2019-04-01T02:50:26.220Z,13.40
2019-04-01T02:52:55.623Z,13.73
2019-04-01T02:55:25.067Z,13.10
2019-04-01T02:57:54.462Z,13.17
2019-04-01T03:00:23.905Z,14.20
2019-04-01T03:02:53.280Z,13.60
2019-04-01T03:05:22.671Z,13.70
2019-04-01T03:07:52.044Z,14.77
2019-04-01T03:10:21.437Z,14.50
2019-04-01T03:12:50.835Z,13.67
2019-04-01T03:15:20.308Z,14.37
2019-04-01T03:17:49.669Z,13.10
2019-04-01T03:20:19.052Z,15.60
2019-04-01T03:22:48.426Z,14.70
2019-04-01T03:25:17.896Z,14.20
2019-04-01T03:27:47.273Z,15.63
2019-04-01T03:30:16.808Z,14.60
2019-04-01T03:32:46.263Z,14.57
2019-04-01T03:35:15.734Z,14.23
2019-04-01T03:37:45.261Z,13.80
2019-04-01T03:40:14.681Z,14.20
2019-04-01T03:42:44.162Z,13.87
2019-04-01T03:45:13.716Z,14.33
2019-04-01T03:47:43.162Z,13.90
2019-04-01T03:50:12.638Z,13.27
2019-04-01T03:52:41.937Z,15.23
2019-04-01T03:55:11.395Z,14.30
2019-04-01T03:57:40.760Z,14.40
2019-04-01T04:00:10.614Z,13.33
2019-04-01T04:02:40.042Z,12.43
2019-04-01T04:05:09.680Z,14.23
2019-04-01T04:07:39.155Z,13.37
2019-04-01T04:10:10.301Z,14.43
2019-04-01T04:12:39.685Z,14.80
2019-04-01T04:15:09.138Z,14.63
2019-04-01T04:17:38.520Z,13.30
2019-04-01T04:20:08.037Z,14.40
2019-04-01T04:22:37.470Z,14.87
2019-04-01T04:25:07.144Z,15.27
2019-04-01T04:27:36.517Z,15.27
2019-04-01T04:30:07.552Z,14.87
2019-04-01T04:32:36.925Z,14.53
2019-04-01T04:35:06.655Z,17.40
2019-04-01T04:37:36.110Z,16.77
2019-04-01T04:40:08.500Z,14.73
2019-04-01T04:42:37.803Z,15.60
2019-04-01T04:45:07.307Z,15.57
2019-04-01T04:47:36.708Z,15.63
2019-04-01T04:50:06.312Z,15.63
2019-04-01T04:52:35.722Z,15.07
2019-04-01T04:55:05.990Z,14.73
2019-04-01T04:57:35.874Z,16.00
2019-04-01T05:00:06.904Z,15.10
2019-04-01T05:02:36.397Z,15.37
2019-04-01T05:05:06.805Z,15.70
2019-04-01T05:07:37.023Z,21.13
2019-04-01T05:10:12.209Z,16.20
2019-04-01T05:12:42.518Z,16.67
2019-04-01T05:15:17.066Z,16.43
2019-04-01T05:17:46.530Z,15.93
2019-04-01T05:20:16.638Z,16.43
2019-04-01T05:22:46.380Z,16.23
2019-04-01T05:25:15.810Z,17.07
2019-04-01T05:27:46.793Z,16.80
2019-04-01T05:30:16.425Z,16.40
2019-04-01T05:32:47.514Z,16.23
2019-04-01T05:35:17.173Z,17.43
2019-04-01T05:37:46.728Z,15.83
2019-04-01T05:40:16.232Z,17.13
2019-04-01T05:42:45.882Z,15.87
2019-04-01T05:45:15.367Z,17.10
2019-04-01T05:47:52.674Z,16.53
2019-04-01T05:50:22.122Z,17.97
2019-04-01T05:52:51.560Z,16.47
2019-04-01T05:55:21.064Z,17.13
2019-04-01T05:57:50.439Z,17.70
2019-04-01T06:00:30.964Z,14.90
2019-04-01T06:03:00.344Z,14.90
2019-04-01T06:05:29.769Z,15.70
2019-04-01T06:07:59.095Z,15.90
2019-04-01T06:10:28.475Z,15.00
2019-04-01T06:12:58.006Z,14.73
2019-04-01T06:15:27.406Z,15.43
2019-04-01T06:17:56.915Z,14.60
2019-04-01T06:20:26.400Z,14.30
2019-04-01T06:22:55.789Z,15.50
2019-04-01T06:25:25.329Z,13.93
2019-04-01T06:27:54.929Z,14.20
2019-04-01T06:30:24.374Z,14.67
2019-04-01T06:32:53.857Z,14.77
2019-04-01T06:35:23.358Z,13.33
2019-04-01T06:37:52.792Z,13.57
2019-04-01T06:40:22.265Z,13.90
2019-04-01T06:42:51.636Z,13.07
2019-04-01T06:45:21.161Z,14.07
2019-04-01T06:47:50.661Z,13.40
2019-04-01T06:50:20.043Z,14.60
2019-04-01T06:52:49.479Z,13.77
2019-04-01T06:55:18.917Z,13.60
2019-04-01T06:57:48.420Z,12.47
2019-04-01T07:00:17.953Z,13.77
2019-04-01T07:02:47.735Z,13.40
2019-04-01T07:05:17.551Z,12.47
2019-04-01T07:07:47.211Z,12.90
2019-04-01T07:10:16.663Z,12.63
2019-04-01T07:12:46.189Z,13.50
2019-04-01T07:15:15.570Z,13.23
2019-04-01T07:17:45.029Z,13.87
2019-04-01T07:20:14.653Z,12.60
2019-04-01T07:22:45.782Z,12.13
2019-04-01T07:25:15.284Z,14.07
2019-04-01T07:27:44.765Z,12.27
2019-04-01T07:30:14.475Z,12.87
2019-04-01T07:32:43.913Z,12.63
2019-04-01T07:35:14.148Z,12.40
2019-04-01T07:37:43.657Z,13.60
2019-04-01T07:40:14.128Z,14.00
2019-04-01T07:42:49.402Z,13.67
2019-04-01T07:45:21.422Z,12.27
2019-04-01T07:47:51.738Z,11.93
2019-04-01T07:50:21.300Z,13.37
2019-04-01T07:52:50.665Z,13.10
2019-04-01T07:55:20.076Z,13.93
2019-04-01T07:57:51.128Z,12.27
2019-04-01T08:00:20.878Z,12.50
2019-04-01T08:02:51.934Z,12.40
2019-04-01T08:05:21.325Z,12.60
2019-04-01T08:07:50.686Z,12.13
2019-04-01T08:10:20.183Z,12.20
2019-04-01T08:12:49.920Z,12.50
2019-04-01T08:15:21.370Z,12.03
2019-04-01T08:17:50.502Z,11.67
2019-04-01T08:20:20.012Z,12.00
2019-04-01T08:22:49.783Z,12.07
2019-04-01T08:25:19.178Z,12.60
2019-04-01T08:27:48.553Z,12.00
2019-04-01T08:30:19.256Z,12.83
2019-04-01T08:32:49.099Z,11.50
2019-04-01T08:35:18.588Z,11.43
2019-04-01T08:37:48.078Z,11.23
2019-04-01T08:40:17.582Z,11.80
2019-04-01T08:42:48.976Z,12.80
2019-04-01T08:45:18.183Z,12.43
2019-04-01T08:47:47.573Z,12.40
2019-04-01T08:50:17.385Z,13.07
2019-04-01T08:52:46.826Z,13.03
2019-04-01T08:55:16.268Z,13.33
2019-04-01T08:57:45.656Z,12.93
2019-04-01T09:00:15.288Z,13.90
2019-04-01T09:02:45.325Z,14.67
2019-04-01T09:05:15.458Z,13.30
2019-04-01T09:07:45.730Z,13.97
2019-04-01T09:10:15.159Z,13.70
2019-04-01T09:12:44.900Z,14.60
2019-04-01T09:15:14.419Z,13.37
2019-04-01T09:17:43.808Z,13.47
2019-04-01T09:20:13.321Z,14.30
2019-04-01T09:22:42.729Z,14.40
2019-04-01T09:25:12.339Z,14.77
2019-04-01T09:27:41.707Z,14.87
2019-04-01T09:30:11.724Z,14.97
2019-04-01T09:32:41.161Z,15.37
2019-04-01T09:35:10.783Z,14.03
2019-04-01T09:37:40.196Z,14.37
2019-04-01T09:40:10.478Z,14.67
2019-04-01T09:42:39.874Z,14.20
2019-04-01T09:45:09.633Z,14.63
2019-04-01T09:47:39.102Z,14.63
2019-04-01T09:50:08.816Z,14.70
2019-04-01T09:52:38.215Z,14.30
2019-04-01T09:55:08.025Z,14.63
2019-04-01T09:57:37.407Z,13.87
2019-04-01T10:00:11.604Z,15.50
2019-04-01T10:02:41.020Z,14.17
2019-04-01T10:05:10.838Z,14.17
2019-04-01T10:07:40.346Z,13.83
2019-04-01T10:10:10.231Z,13.77
2019-04-01T10:12:39.615Z,13.80
2019-04-01T10:15:09.840Z,13.70
2019-04-01T10:17:39.443Z,13.63
2019-04-01T10:20:09.000Z,14.27
2019-04-01T10:22:38.384Z,13.93
2019-04-01T10:25:08.207Z,14.83
2019-04-01T10:27:37.656Z,13.93
2019-04-01T10:30:11.040Z,14.43
2019-04-01T10:32:40.425Z,14.07
2019-04-01T10:35:10.249Z,14.90
2019-04-01T10:37:39.586Z,15.50
2019-04-01T10:40:09.315Z,17.00
2019-04-01T10:42:38.775Z,16.40
2019-04-01T10:45:09.130Z,16.70
2019-04-01T10:47:38.689Z,16.60
2019-04-01T10:50:08.940Z,16.20
2019-04-01T10:52:38.441Z,14.77
2019-04-01T10:55:08.371Z,15.93
2019-04-01T10:57:38.059Z,16.33
2019-04-01T11:00:09.097Z,16.47
2019-04-01T11:02:38.627Z,16.07
2019-04-01T11:05:08.273Z,16.93
2019-04-01T11:07:37.883Z,16.50
2019-04-01T11:10:11.324Z,14.73
2019-04-01T11:12:39.594Z,14.73
2019-04-01T11:15:09.209Z,13.97
2019-04-01T11:17:38.530Z,14.47
2019-04-01T11:20:08.537Z,15.43
2019-04-01T11:22:37.929Z,15.73
2019-04-01T11:25:08.225Z,16.30
2019-04-01T11:27:37.674Z,15.27
2019-04-01T11:30:08.361Z,15.90
2019-04-01T11:32:38.023Z,14.73
2019-04-01T11:35:08.020Z,15.27
2019-04-01T11:37:37.399Z,15.60
2019-04-01T11:40:10.734Z,15.70
2019-04-01T11:42:40.339Z,16.33
2019-04-01T11:45:12.077Z,18.97
2019-04-01T11:47:41.663Z,16.87
2019-04-01T11:50:12.128Z,15.65
2019-04-01T11:52:41.578Z,14.78
2019-04-01T11:55:11.147Z,15.38
2019-04-01T11:57:41.054Z,15.53
2019-04-01T12:00:17.758Z,18.42
2019-04-01T12:02:47.214Z,16.90
2019-04-01T12:05:16.813Z,17.43
2019-04-01T12:07:46.279Z,16.40
2019-04-01T12:10:15.813Z,16.43
2019-04-01T12:12:45.724Z,17.20
2019-04-01T12:15:15.781Z,16.48
2019-04-01T12:17:45.242Z,16.00
2019-04-01T12:20:14.715Z,15.55
2019-04-01T12:22:45.938Z,15.32
2019-04-01T12:25:16.260Z,16.60
2019-04-01T12:27:46.292Z,15.28
2019-04-01T12:30:15.775Z,16.87
2019-04-01T12:32:45.811Z,15.23
2019-04-01T12:35:15.749Z,14.90
2019-04-01T12:37:45.951Z,16.65
2019-04-01T12:40:16.390Z,15.70
2019-04-01T12:42:46.553Z,16.40
2019-04-01T12:45:16.948Z,16.55
2019-04-01T12:47:46.900Z,16.62
2019-04-01T12:50:17.045Z,16.77
2019-04-01T12:52:47.071Z,16.40
2019-04-01T12:55:17.145Z,16.37
2019-04-01T12:57:48.513Z,15.55
2019-04-01T13:00:18.953Z,16.15
2019-04-01T13:02:49.609Z,17.20
2019-04-01T13:05:19.906Z,17.27
2019-04-01T13:07:50.036Z,16.93
2019-04-01T13:10:21.617Z,17.73
2019-04-01T13:12:54.120Z,17.32
2019-04-01T13:15:23.461Z,18.25
2019-04-01T13:17:53.426Z,17.77
2019-04-01T13:20:37.091Z,15.40
2019-04-01T13:22:55.105Z,16.57
2019-04-01T13:25:25.080Z,15.98
2019-04-01T13:27:55.052Z,16.40
2019-04-01T13:30:26.304Z,16.42
2019-04-01T13:32:56.548Z,16.30
2019-04-01T13:35:27.868Z,16.73
2019-04-01T13:37:58.036Z,16.95
2019-04-01T13:40:29.749Z,16.00
2019-04-01T13:42:59.717Z,17.62
2019-04-01T13:45:31.678Z,16.90
2019-04-01T13:48:01.422Z,18.45
2019-04-01T13:50:31.748Z,17.52
2019-04-01T13:53:02.567Z,17.20
2019-04-01T13:55:32.567Z,17.60
2019-04-01T13:58:02.562Z,39.88
2019-04-01T14:00:32.555Z,19.57
2019-04-01T14:03:02.444Z,17.95
2019-04-01T14:05:32.337Z,18.67
2019-04-01T14:08:05.743Z,19.75
2019-04-01T14:10:33.970Z,18.77
2019-04-01T14:13:04.007Z,18.37
2019-04-01T14:15:34.011Z,17.87
2019-04-01T14:18:04.033Z,17.90
2019-04-01T14:20:33.988Z,18.95
2019-04-01T14:23:04.061Z,19.52
2019-04-01T14:25:34.957Z,18.65
2019-04-01T14:28:06.869Z,18.82
2019-04-01T14:30:37.148Z,18.52
2019-04-01T14:33:07.109Z,17.98
2019-04-01T14:35:37.088Z,18.60
2019-04-01T14:38:07.122Z,18.15
2019-04-01T14:40:37.099Z,17.50
2019-04-01T14:43:07.064Z,18.15
2019-04-01T14:45:37.056Z,18.20
2019-04-01T14:48:08.668Z,19.85
2019-04-01T14:50:38.959Z,19.17
2019-04-01T14:53:10.076Z,18.77
2019-04-01T14:55:40.386Z,18.42
2019-04-01T14:58:10.355Z,17.92
2019-04-01T15:00:40.338Z,18.85
2019-04-01T15:03:10.207Z,18.98
2019-04-01T15:05:40.193Z,18.15
2019-04-01T15:08:10.150Z,18.92
2019-04-01T15:10:41.154Z,18.67
2019-04-01T15:13:11.423Z,18.45
2019-04-01T15:15:41.408Z,17.75
2019-04-01T15:18:11.448Z,18.20
2019-04-01T15:20:41.411Z,20.05
2019-04-01T15:23:11.411Z,19.10
2019-04-01T15:25:41.464Z,18.23
2019-04-01T15:28:11.530Z,18.48
2019-04-01T15:30:41.580Z,19.05
2019-04-01T15:33:11.675Z,19.02
2019-04-01T15:35:41.668Z,18.40
2019-04-01T15:38:11.642Z,17.85
2019-04-01T15:40:41.614Z,18.85
2019-04-01T15:43:12.126Z,19.02
2019-04-01T15:45:42.470Z,21.45
2019-04-01T15:48:12.574Z,18.07
2019-04-01T15:50:42.599Z,18.07
2019-04-01T15:53:12.662Z,17.77
2019-04-01T15:55:42.856Z,18.02
2019-04-01T15:58:12.826Z,17.12
2019-04-01T16:00:42.838Z,16.07
2019-04-01T16:03:12.796Z,19.10
2019-04-01T16:05:42.791Z,18.75
2019-04-01T16:08:12.763Z,15.55
2019-04-01T16:10:42.762Z,16.07
2019-04-01T16:13:14.166Z,15.58
2019-04-01T16:15:44.578Z,15.75
2019-04-01T16:18:14.539Z,15.18
2019-04-01T16:20:44.538Z,16.50
2019-04-01T16:23:14.520Z,16.25
2019-04-01T16:25:44.489Z,16.05
2019-04-01T16:28:14.447Z,16.10
2019-04-01T16:30:44.503Z,17.67
2019-04-01T16:33:14.512Z,16.55
2019-04-01T16:35:44.632Z,16.67
2019-04-01T16:38:16.760Z,17.15
2019-04-01T16:40:47.810Z,16.35
2019-04-01T16:43:17.340Z,16.05
2019-04-01T16:45:47.616Z,17.70
2019-04-01T16:48:16.919Z,17.13
2019-04-01T16:50:46.290Z,17.20
2019-04-01T16:53:15.704Z,16.80
2019-04-01T16:55:45.331Z,16.77
2019-04-01T16:58:14.734Z,17.30
2019-04-01T17:00:44.103Z,17.97
2019-04-01T17:03:13.792Z,16.43
2019-04-01T17:05:43.254Z,17.10
2019-04-01T17:08:12.727Z,17.33
2019-04-01T17:10:42.155Z,17.00
2019-04-01T17:13:11.563Z,17.60
2019-04-01T17:15:40.940Z,17.80
2019-04-01T17:18:10.379Z,16.50
2019-04-01T17:20:39.793Z,17.03
2019-04-01T17:23:09.157Z,17.90
2019-04-01T17:25:38.561Z,16.37
2019-04-01T17:28:07.946Z,17.03
2019-04-01T17:30:37.349Z,17.17
2019-04-01T17:33:08.347Z,17.90
2019-04-01T17:35:37.889Z,17.77
2019-04-01T17:38:07.533Z,17.40
2019-04-01T17:40:37.002Z,17.27
2019-04-01T17:43:09.218Z,18.93
2019-04-01T17:45:40.333Z,17.07
2019-04-01T17:48:10.197Z,16.67
2019-04-01T17:50:39.669Z,17.47
2019-04-01T17:53:11.222Z,16.80
2019-04-01T17:55:40.692Z,17.20
2019-04-01T17:58:10.091Z,17.70
2019-04-01T18:00:42.354Z,16.73
2019-04-01T18:03:11.859Z,16.80
2019-04-01T18:05:41.261Z,16.67
2019-04-01T18:08:10.626Z,17.63
2019-04-01T18:10:40.035Z,18.00
2019-04-01T18:13:09.354Z,17.60
2019-04-01T18:15:38.812Z,18.10
2019-04-01T18:18:10.059Z,17.17
2019-04-01T18:20:39.375Z,18.63
2019-04-01T18:23:08.778Z,19.70
2019-04-01T18:25:40.214Z,20.43
2019-04-01T18:28:09.897Z,20.23
2019-04-01T18:30:39.270Z,18.43
2019-04-01T18:33:08.678Z,19.30
2019-04-01T18:35:38.072Z,18.97
2019-04-01T18:38:07.539Z,17.93
2019-04-01T18:40:36.933Z,17.20
2019-04-01T18:43:06.320Z,17.67
2019-04-01T18:45:35.708Z,17.70
2019-04-01T18:48:05.160Z,17.50
2019-04-01T18:50:34.556Z,16.93
2019-04-01T18:53:03.955Z,17.77
2019-04-01T18:55:33.529Z,17.47
2019-04-01T18:58:02.936Z,17.57
2019-04-01T19:00:32.437Z,17.40
2019-04-01T19:03:01.915Z,17.47
2019-04-01T19:05:31.292Z,18.97
2019-04-01T19:08:00.748Z,17.47
2019-04-01T19:10:30.136Z,17.20
2019-04-01T19:13:05.812Z,18.07
2019-04-01T19:15:31.337Z,19.43
2019-04-01T19:18:01.400Z,19.63
2019-04-01T19:20:30.848Z,17.50
2019-04-01T19:23:02.017Z,17.00
2019-04-01T19:25:31.219Z,16.93
2019-04-01T19:28:00.614Z,17.03
2019-04-01T19:30:30.224Z,17.17
2019-04-01T19:32:59.622Z,18.17
2019-04-01T19:35:29.048Z,18.40
2019-04-01T19:37:58.440Z,17.43
2019-04-01T19:40:27.815Z,15.57
2019-04-01T19:42:57.216Z,15.47
2019-04-01T19:45:26.708Z,15.27
2019-04-01T19:47:57.363Z,16.87
2019-04-01T19:50:26.890Z,16.37
2019-04-01T19:52:56.344Z,14.70
2019-04-01T19:55:25.807Z,15.80
2019-04-01T19:57:56.134Z,16.60
2019-04-01T20:00:28.259Z,16.00
2019-04-01T20:02:56.897Z,14.90
2019-04-01T20:05:26.364Z,15.20
2019-04-01T20:07:55.732Z,15.90
2019-04-01T20:10:28.156Z,15.27
2019-04-01T20:12:56.293Z,14.30
2019-04-01T20:15:25.687Z,14.60
2019-04-01T20:17:55.170Z,14.50
2019-04-01T20:20:24.619Z,14.67
2019-04-01T20:22:54.452Z,14.67
2019-04-01T20:25:23.965Z,15.23
2019-04-01T20:27:53.480Z,15.80
2019-04-01T20:30:22.942Z,13.20
2019-04-01T20:32:52.371Z,14.30
2019-04-01T20:35:23.656Z,13.43
2019-04-01T20:37:52.993Z,12.90
2019-04-01T20:40:24.090Z,12.63
2019-04-01T20:42:53.650Z,13.87
2019-04-01T20:45:23.063Z,13.07
2019-04-01T20:47:52.537Z,13.53
2019-04-01T20:50:22.362Z,12.77
2019-04-01T20:52:51.828Z,13.60
2019-04-01T20:55:21.291Z,13.87
2019-04-01T20:57:50.701Z,13.37
2019-04-01T21:00:20.633Z,12.90
2019-04-01T21:02:50.110Z,12.80
2019-04-01T21:05:19.630Z,12.83
2019-04-01T21:07:49.206Z,13.93
2019-04-01T21:10:18.732Z,12.90
2019-04-01T21:12:48.129Z,15.70
2019-04-01T21:15:17.617Z,17.63
2019-04-01T21:17:46.991Z,13.73
2019-04-01T21:20:16.439Z,16.13
2019-04-01T21:22:45.864Z,13.83
2019-04-01T21:25:15.484Z,12.73
2019-04-01T21:27:44.874Z,13.27
2019-04-01T21:30:14.606Z,13.73
2019-04-01T21:32:44.355Z,12.67
2019-04-01T21:35:14.697Z,13.37
2019-04-01T21:37:44.065Z,12.30
2019-04-01T21:40:14.709Z,12.67
2019-04-01T21:42:44.084Z,14.07
2019-04-01T21:45:13.598Z,12.07
2019-04-01T21:47:42.994Z,13.77
2019-04-01T21:50:12.603Z,12.23
2019-04-01T21:52:42.010Z,13.90
2019-04-01T21:55:12.438Z,12.73
2019-04-01T21:57:41.843Z,12.33
2019-04-01T22:00:14.716Z,12.53
2019-04-01T22:02:44.526Z,12.57
2019-04-01T22:05:14.147Z,11.50
2019-04-01T22:07:43.552Z,11.87
2019-04-01T22:10:13.773Z,12.50
2019-04-01T22:12:43.139Z,12.90
2019-04-01T22:15:12.713Z,13.50
2019-04-01T22:17:42.110Z,12.70
2019-04-01T22:20:11.681Z,12.50
2019-04-01T22:22:41.134Z,11.27
2019-04-01T22:25:10.699Z,12.40
2019-04-01T22:27:40.065Z,12.57
2019-04-01T22:30:09.910Z,12.57
2019-04-01T22:32:39.279Z,12.43
2019-04-01T22:35:08.794Z,13.30
2019-04-01T22:37:38.253Z,12.47
2019-04-01T22:40:08.463Z,12.70
2019-04-01T22:42:37.878Z,12.50
2019-04-01T22:45:07.608Z,12.13
2019-04-01T22:47:37.004Z,12.47
2019-04-01T22:50:07.978Z,12.17
2019-04-01T22:52:37.379Z,12.47
2019-04-01T22:55:07.001Z,12.57
2019-04-01T22:57:36.386Z,12.40
2019-04-01T23:00:06.427Z,12.73
2019-04-01T23:02:35.895Z,13.03
2019-04-01T23:05:07.292Z,11.60
2019-04-01T23:07:37.381Z,12.80
2019-04-01T23:10:07.959Z,12.60
2019-04-01T23:12:38.006Z,12.73
2019-04-01T23:15:07.749Z,12.83
2019-04-01T23:17:38.182Z,14.00
2019-04-01T23:20:08.249Z,12.80
2019-04-01T23:22:37.652Z,13.07
2019-04-01T23:25:07.399Z,13.13
2019-04-01T23:27:36.791Z,13.90
2019-04-01T23:30:09.538Z,13.93
2019-04-01T23:32:41.706Z,12.50
2019-04-01T23:35:12.371Z,12.63
2019-04-01T23:37:42.115Z,12.60
2019-04-01T23:40:11.982Z,12.80
2019-04-01T23:42:41.390Z,12.47
2019-04-01T23:45:11.632Z,12.77
2019-04-01T23:47:41.010Z,13.07
2019-04-01T23:50:10.552Z,12.40
2019-04-01T23:52:39.993Z,12.57
2019-04-01T23:55:10.045Z,13.20
2019-04-01T23:57:39.412Z,12.87
